White Hall, West Virginia
Current Conditions -  °F | °C
As of 7:53 AM on Thursday 23 Oct 2014 (Local Time) from KCKB Reporting Station
Overcast Overcast  
Wind Chill: 44°   Ceiling: 1900
Heat Index: 46°   Visibility: 10mi
Dew Point: 42°   Wind: 5mph
Humidity: 86%   Direction: 280°W
Pressure: 30.16"   Gusts: NA
Location:  39.4675°N, 80.064°W
Report Text: KCKB 231153Z 28004KT 10SM OVC019 08/06 A3016 RMK AO2 SLP210 T00780056 10083 20078 50005
Loading
Personal Weather Stations






























Interactive Weather Map
Tropical Storm Tracking
New forecast layout! Learn more

10-Day Weather Forecast

Advertisements
Track Severe Weather on mobile